sensor_id;sensor_type;location;lat;lon;timestamp;P1;durP1;ratioP1;P2;durP2;ratioP2
54947;SDS011;41113;41.882;12.530;2022-10-31T00:00:27;19.95;;;10.15;;
54947;SDS011;41113;41.882;12.530;2022-10-31T00:02:52;19.33;;;9.18;;
54947;SDS011;41113;41.882;12.530;2022-10-31T00:05:18;21.92;;;9.98;;
54947;SDS011;41113;41.882;12.530;2022-10-31T00:07:43;18.60;;;10.57;;
54947;SDS011;41113;41.882;12.530;2022-10-31T00:10:09;19.85;;;9.80;;
54947;SDS011;41113;41.882;12.530;2022-10-31T00:12:34;21.88;;;10.23;;
54947;SDS011;41113;41.882;12.530;2022-10-31T00:15:00;23.83;;;10.10;;
54947;SDS011;41113;41.882;12.530;2022-10-31T00:17:25;21.38;;;10.05;;
54947;SDS011;41113;41.882;12.530;2022-10-31T00:19:51;21.17;;;10.50;;
54947;SDS011;41113;41.882;12.530;2022-10-31T00:22:16;19.75;;;10.55;;
54947;SDS011;41113;41.882;12.530;2022-10-31T00:24:41;22.38;;;11.40;;
54947;SDS011;41113;41.882;12.530;2022-10-31T00:27:07;20.52;;;10.05;;
54947;SDS011;41113;41.882;12.530;2022-10-31T00:29:32;21.05;;;10.60;;
54947;SDS011;41113;41.882;12.530;2022-10-31T00:31:58;16.80;;;8.90;;
54947;SDS011;41113;41.882;12.530;2022-10-31T00:34:23;24.48;;;9.95;;
54947;SDS011;41113;41.882;12.530;2022-10-31T00:36:48;19.30;;;9.55;;
54947;SDS011;41113;41.882;12.530;2022-10-31T00:39:14;22.65;;;10.35;;
54947;SDS011;41113;41.882;12.530;2022-10-31T00:41:39;16.60;;;9.48;;
54947;SDS011;41113;41.882;12.530;2022-10-31T00:44:05;19.35;;;9.52;;
54947;SDS011;41113;41.882;12.530;2022-10-31T00:46:30;20.08;;;9.75;;
54947;SDS011;41113;41.882;12.530;2022-10-31T00:48:55;18.02;;;8.35;;
54947;SDS011;41113;41.882;12.530;2022-10-31T00:51:21;19.73;;;8.00;;
54947;SDS011;41113;41.882;12.530;2022-10-31T00:53:46;15.30;;;7.38;;
54947;SDS011;41113;41.882;12.530;2022-10-31T00:56:11;19.17;;;8.90;;
54947;SDS011;41113;41.882;12.530;2022-10-31T00:58:37;14.68;;;7.78;;
54947;SDS011;41113;41.882;12.530;2022-10-31T01:01:02;19.85;;;8.55;;
54947;SDS011;41113;41.882;12.530;2022-10-31T01:03:29;17.83;;;7.68;;
54947;SDS011;41113;41.882;12.530;2022-10-31T01:06:00;17.17;;;7.28;;
54947;SDS011;41113;41.882;12.530;2022-10-31T01:11:24;18.73;;;7.40;;
54947;SDS011;41113;41.882;12.530;2022-10-31T01:13:45;18.25;;;8.30;;
54947;SDS011;41113;41.882;12.530;2022-10-31T01:16:12;15.23;;;7.00;;
54947;SDS011;41113;41.882;12.530;2022-10-31T01:18:39;16.10;;;7.90;;
54947;SDS011;41113;41.882;12.530;2022-10-31T01:21:08;18.90;;;7.72;;
54947;SDS011;41113;41.882;12.530;2022-10-31T01:23:35;17.00;;;7.85;;
54947;SDS011;41113;41.882;12.530;2022-10-31T01:28:44;16.13;;;7.18;;
54947;SDS011;41113;41.882;12.530;2022-10-31T01:31:12;13.93;;;6.60;;
54947;SDS011;41113;41.882;12.530;2022-10-31T01:33:37;17.25;;;6.93;;
54947;SDS011;41113;41.882;12.530;2022-10-31T01:36:25;16.58;;;6.90;;
54947;SDS011;41113;41.882;12.530;2022-10-31T01:38:54;14.85;;;6.72;;
54947;SDS011;41113;41.882;12.530;2022-10-31T01:41:22;14.80;;;6.70;;
54947;SDS011;41113;41.882;12.530;2022-10-31T01:46:23;16.55;;;6.65;;
54947;SDS011;41113;41.882;12.530;2022-10-31T01:48:53;13.30;;;6.32;;
54947;SDS011;41113;41.882;12.530;2022-10-31T01:51:21;15.80;;;6.82;;
54947;SDS011;41113;41.882;12.530;2022-10-31T01:53:51;16.00;;;6.80;;
54947;SDS011;41113;41.882;12.530;2022-10-31T01:56:20;13.82;;;6.88;;
54947;SDS011;41113;41.882;12.530;2022-10-31T01:58:46;16.67;;;6.78;;
54947;SDS011;41113;41.882;12.530;2022-10-31T02:01:12;15.55;;;6.55;;
54947;SDS011;41113;41.882;12.530;2022-10-31T02:03:40;14.43;;;6.70;;
54947;SDS011;41113;41.882;12.530;2022-10-31T02:06:06;15.80;;;6.63;;
54947;SDS011;41113;41.882;12.530;2022-10-31T02:11:01;13.00;;;6.70;;
54947;SDS011;41113;41.882;12.530;2022-10-31T02:13:27;16.00;;;6.50;;
54947;SDS011;41113;41.882;12.530;2022-10-31T02:15:55;14.93;;;6.38;;
54947;SDS011;41113;41.882;12.530;2022-10-31T02:18:22;14.17;;;6.53;;
54947;SDS011;41113;41.882;12.530;2022-10-31T02:20:58;16.23;;;6.88;;
54947;SDS011;41113;41.882;12.530;2022-10-31T02:23:44;13.90;;;6.47;;
54947;SDS011;41113;41.882;12.530;2022-10-31T02:31:38;12.02;;;6.25;;
54947;SDS011;41113;41.882;12.530;2022-10-31T02:34:38;13.80;;;6.38;;
54947;SDS011;41113;41.882;12.530;2022-10-31T02:37:26;13.85;;;6.60;;
54947;SDS011;41113;41.882;12.530;2022-10-31T02:40:06;15.82;;;6.60;;
54947;SDS011;41113;41.882;12.530;2022-10-31T02:43:58;16.73;;;6.20;;
54947;SDS011;41113;41.882;12.530;2022-10-31T02:46:19;16.00;;;6.40;;
54947;SDS011;41113;41.882;12.530;2022-10-31T02:48:52;15.32;;;6.53;;
54947;SDS011;41113;41.882;12.530;2022-10-31T02:51:24;14.65;;;6.88;;
54947;SDS011;41113;41.882;12.530;2022-10-31T02:53:49;14.30;;;6.05;;
54947;SDS011;41113;41.882;12.530;2022-10-31T02:56:15;14.63;;;6.68;;
54947;SDS011;41113;41.882;12.530;2022-10-31T02:58:44;15.88;;;6.80;;
54947;SDS011;41113;41.882;12.530;2022-10-31T03:03:59;18.58;;;7.00;;
54947;SDS011;41113;41.882;12.530;2022-10-31T03:11:37;12.93;;;6.68;;
54947;SDS011;41113;41.882;12.530;2022-10-31T03:14:20;14.80;;;6.55;;
54947;SDS011;41113;41.882;12.530;2022-10-31T03:16:51;14.52;;;6.90;;
54947;SDS011;41113;41.882;12.530;2022-10-31T03:19:22;13.57;;;6.63;;
54947;SDS011;41113;41.882;12.530;2022-10-31T03:21:58;15.27;;;6.57;;
54947;SDS011;41113;41.882;12.530;2022-10-31T03:24:32;16.75;;;6.40;;
54947;SDS011;41113;41.882;12.530;2022-10-31T03:27:02;13.52;;;6.45;;
54947;SDS011;41113;41.882;12.530;2022-10-31T03:29:32;12.88;;;5.68;;
54947;SDS011;41113;41.882;12.530;2022-10-31T03:32:10;14.23;;;6.32;;
54947;SDS011;41113;41.882;12.530;2022-10-31T03:34:41;14.98;;;6.32;;
54947;SDS011;41113;41.882;12.530;2022-10-31T03:37:10;14.25;;;5.93;;
54947;SDS011;41113;41.882;12.530;2022-10-31T03:39:39;14.05;;;6.40;;
54947;SDS011;41113;41.882;12.530;2022-10-31T03:42:09;16.15;;;7.10;;
54947;SDS011;41113;41.882;12.530;2022-10-31T03:44:38;14.15;;;6.60;;
54947;SDS011;41113;41.882;12.530;2022-10-31T03:47:08;17.65;;;7.10;;
54947;SDS011;41113;41.882;12.530;2022-10-31T03:49:33;14.18;;;6.85;;
54947;SDS011;41113;41.882;12.530;2022-10-31T03:54:40;13.15;;;6.65;;
54947;SDS011;41113;41.882;12.530;2022-10-31T03:57:09;17.25;;;6.30;;
54947;SDS011;41113;41.882;12.530;2022-10-31T03:59:44;16.02;;;7.05;;
54947;SDS011;41113;41.882;12.530;2022-10-31T04:02:15;16.35;;;7.45;;
54947;SDS011;41113;41.882;12.530;2022-10-31T04:04:44;16.02;;;6.95;;
54947;SDS011;41113;41.882;12.530;2022-10-31T04:07:11;13.75;;;6.55;;
54947;SDS011;41113;41.882;12.530;2022-10-31T04:09:39;14.10;;;6.45;;
54947;SDS011;41113;41.882;12.530;2022-10-31T04:12:08;16.50;;;6.53;;
54947;SDS011;41113;41.882;12.530;2022-10-31T04:14:36;13.75;;;6.18;;
54947;SDS011;41113;41.882;12.530;2022-10-31T04:17:05;14.80;;;6.43;;
54947;SDS011;41113;41.882;12.530;2022-10-31T04:21:59;19.08;;;7.32;;
54947;SDS011;41113;41.882;12.530;2022-10-31T04:24:25;15.27;;;6.82;;
54947;SDS011;41113;41.882;12.530;2022-10-31T04:26:50;15.93;;;7.50;;
54947;SDS011;41113;41.882;12.530;2022-10-31T04:29:16;18.50;;;6.88;;
54947;SDS011;41113;41.882;12.530;2022-10-31T04:31:41;15.35;;;6.00;;
54947;SDS011;41113;41.882;12.530;2022-10-31T04:34:07;15.25;;;6.00;;
54947;SDS011;41113;41.882;12.530;2022-10-31T04:36:32;14.93;;;6.65;;
54947;SDS011;41113;41.882;12.530;2022-10-31T04:38:57;16.38;;;7.13;;
54947;SDS011;41113;41.882;12.530;2022-10-31T04:41:23;16.63;;;6.93;;
54947;SDS011;41113;41.882;12.530;2022-10-31T04:43:48;17.40;;;7.18;;
54947;SDS011;41113;41.882;12.530;2022-10-31T04:46:14;16.60;;;7.20;;
54947;SDS011;41113;41.882;12.530;2022-10-31T04:48:39;16.35;;;7.82;;
54947;SDS011;41113;41.882;12.530;2022-10-31T04:51:05;13.60;;;6.63;;
54947;SDS011;41113;41.882;12.530;2022-10-31T04:53:30;18.70;;;7.32;;
54947;SDS011;41113;41.882;12.530;2022-10-31T04:55:57;15.93;;;6.88;;
54947;SDS011;41113;41.882;12.530;2022-10-31T04:58:24;15.88;;;7.00;;
54947;SDS011;41113;41.882;12.530;2022-10-31T05:00:53;19.48;;;8.52;;
54947;SDS011;41113;41.882;12.530;2022-10-31T05:03:20;21.95;;;8.68;;
54947;SDS011;41113;41.882;12.530;2022-10-31T05:05:46;15.77;;;7.70;;
54947;SDS011;41113;41.882;12.530;2022-10-31T05:08:11;16.77;;;7.40;;
54947;SDS011;41113;41.882;12.530;2022-10-31T05:10:36;15.75;;;7.60;;
54947;SDS011;41113;41.882;12.530;2022-10-31T05:13:03;14.55;;;6.80;;
54947;SDS011;41113;41.882;12.530;2022-10-31T05:15:28;16.33;;;7.20;;
54947;SDS011;41113;41.882;12.530;2022-10-31T05:17:54;15.13;;;7.00;;
54947;SDS011;41113;41.882;12.530;2022-10-31T05:20:21;16.08;;;7.60;;
54947;SDS011;41113;41.882;12.530;2022-10-31T05:22:50;14.30;;;6.85;;
54947;SDS011;41113;41.882;12.530;2022-10-31T05:25:17;15.13;;;7.57;;
54947;SDS011;41113;41.882;12.530;2022-10-31T05:27:44;17.48;;;7.95;;
54947;SDS011;41113;41.882;12.530;2022-10-31T05:30:12;14.43;;;6.90;;
54947;SDS011;41113;41.882;12.530;2022-10-31T05:35:05;14.57;;;7.10;;
54947;SDS011;41113;41.882;12.530;2022-10-31T05:37:34;16.00;;;6.50;;
54947;SDS011;41113;41.882;12.530;2022-10-31T05:40:01;16.65;;;7.63;;
54947;SDS011;41113;41.882;12.530;2022-10-31T05:42:29;14.70;;;7.18;;
54947;SDS011;41113;41.882;12.530;2022-10-31T05:44:55;15.55;;;7.25;;
54947;SDS011;41113;41.882;12.530;2022-10-31T05:47:26;16.98;;;7.40;;
54947;SDS011;41113;41.882;12.530;2022-10-31T05:49:51;13.75;;;6.60;;
54947;SDS011;41113;41.882;12.530;2022-10-31T05:52:17;13.70;;;6.93;;
54947;SDS011;41113;41.882;12.530;2022-10-31T05:54:43;17.27;;;7.05;;
54947;SDS011;41113;41.882;12.530;2022-10-31T05:57:08;18.40;;;7.05;;
54947;SDS011;41113;41.882;12.530;2022-10-31T05:59:34;15.13;;;6.82;;
54947;SDS011;41113;41.882;12.530;2022-10-31T06:01:59;14.82;;;7.35;;
54947;SDS011;41113;41.882;12.530;2022-10-31T06:04:25;16.20;;;7.93;;
54947;SDS011;41113;41.882;12.530;2022-10-31T06:06:51;13.90;;;7.13;;
54947;SDS011;41113;41.882;12.530;2022-10-31T06:09:16;18.08;;;7.65;;
54947;SDS011;41113;41.882;12.530;2022-10-31T06:11:42;16.20;;;6.97;;
54947;SDS011;41113;41.882;12.530;2022-10-31T06:14:07;18.92;;;7.35;;
54947;SDS011;41113;41.882;12.530;2022-10-31T06:16:32;17.17;;;7.00;;
54947;SDS011;41113;41.882;12.530;2022-10-31T06:18:58;15.68;;;7.10;;
54947;SDS011;41113;41.882;12.530;2022-10-31T06:21:23;15.88;;;6.95;;
54947;SDS011;41113;41.882;12.530;2022-10-31T06:23:49;14.32;;;6.18;;
54947;SDS011;41113;41.882;12.530;2022-10-31T06:26:14;15.10;;;6.85;;
54947;SDS011;41113;41.882;12.530;2022-10-31T06:28:40;18.00;;;6.80;;
54947;SDS011;41113;41.882;12.530;2022-10-31T06:31:05;14.38;;;7.22;;
54947;SDS011;41113;41.882;12.530;2022-10-31T06:33:31;15.77;;;6.68;;
54947;SDS011;41113;41.882;12.530;2022-10-31T06:35:56;18.95;;;6.68;;
54947;SDS011;41113;41.882;12.530;2022-10-31T06:38:22;16.67;;;7.72;;
54947;SDS011;41113;41.882;12.530;2022-10-31T06:40:47;15.05;;;6.70;;
54947;SDS011;41113;41.882;12.530;2022-10-31T06:43:12;14.45;;;6.60;;
54947;SDS011;41113;41.882;12.530;2022-10-31T06:45:39;13.95;;;6.88;;
54947;SDS011;41113;41.882;12.530;2022-10-31T06:48:05;17.15;;;7.30;;
54947;SDS011;41113;41.882;12.530;2022-10-31T06:50:30;17.35;;;6.95;;
54947;SDS011;41113;41.882;12.530;2022-10-31T06:52:57;16.58;;;8.07;;
54947;SDS011;41113;41.882;12.530;2022-10-31T06:55:23;23.52;;;12.40;;
54947;SDS011;41113;41.882;12.530;2022-10-31T06:57:54;22.83;;;10.95;;
54947;SDS011;41113;41.882;12.530;2022-10-31T07:00:20;19.65;;;8.77;;
54947;SDS011;41113;41.882;12.530;2022-10-31T07:02:56;22.13;;;8.13;;
54947;SDS011;41113;41.882;12.530;2022-10-31T07:05:24;17.50;;;7.38;;
54947;SDS011;41113;41.882;12.530;2022-10-31T07:07:57;17.02;;;7.95;;
54947;SDS011;41113;41.882;12.530;2022-10-31T07:10:28;16.10;;;6.97;;
54947;SDS011;41113;41.882;12.530;2022-10-31T07:12:56;16.15;;;8.00;;
54947;SDS011;41113;41.882;12.530;2022-10-31T07:15:22;22.88;;;10.88;;
54947;SDS011;41113;41.882;12.530;2022-10-31T07:17:48;20.08;;;10.15;;
54947;SDS011;41113;41.882;12.530;2022-10-31T07:20:14;19.83;;;8.38;;
54947;SDS011;41113;41.882;12.530;2022-10-31T07:22:39;19.80;;;8.23;;
54947;SDS011;41113;41.882;12.530;2022-10-31T07:25:05;19.85;;;7.25;;
54947;SDS011;41113;41.882;12.530;2022-10-31T07:27:40;14.32;;;6.82;;
54947;SDS011;41113;41.882;12.530;2022-10-31T07:30:07;16.70;;;7.13;;
54947;SDS011;41113;41.882;12.530;2022-10-31T07:32:44;15.68;;;6.72;;
54947;SDS011;41113;41.882;12.530;2022-10-31T07:35:12;14.30;;;6.25;;
54947;SDS011;41113;41.882;12.530;2022-10-31T07:37:39;12.90;;;6.07;;
54947;SDS011;41113;41.882;12.530;2022-10-31T07:40:05;15.73;;;6.78;;
54947;SDS011;41113;41.882;12.530;2022-10-31T07:42:39;17.98;;;7.65;;
54947;SDS011;41113;41.882;12.530;2022-10-31T07:45:06;16.33;;;6.97;;
54947;SDS011;41113;41.882;12.530;2022-10-31T07:50:10;18.20;;;7.70;;
54947;SDS011;41113;41.882;12.530;2022-10-31T07:52:42;22.05;;;7.82;;
54947;SDS011;41113;41.882;12.530;2022-10-31T07:55:08;17.55;;;8.25;;
54947;SDS011;41113;41.882;12.530;2022-10-31T07:57:34;17.42;;;7.07;;
54947;SDS011;41113;41.882;12.530;2022-10-31T08:00:02;15.50;;;6.30;;
54947;SDS011;41113;41.882;12.530;2022-10-31T08:02:28;14.52;;;6.68;;
54947;SDS011;41113;41.882;12.530;2022-10-31T08:04:53;13.60;;;6.65;;
54947;SDS011;41113;41.882;12.530;2022-10-31T08:07:20;17.60;;;7.70;;
54947;SDS011;41113;41.882;12.530;2022-10-31T08:09:45;17.23;;;6.90;;
54947;SDS011;41113;41.882;12.530;2022-10-31T08:12:10;16.13;;;7.05;;
54947;SDS011;41113;41.882;12.530;2022-10-31T08:14:36;16.80;;;6.90;;
54947;SDS011;41113;41.882;12.530;2022-10-31T08:17:01;15.32;;;7.53;;
54947;SDS011;41113;41.882;12.530;2022-10-31T08:19:27;21.15;;;7.65;;
54947;SDS011;41113;41.882;12.530;2022-10-31T08:21:52;19.10;;;9.10;;
54947;SDS011;41113;41.882;12.530;2022-10-31T08:24:20;16.60;;;7.18;;
54947;SDS011;41113;41.882;12.530;2022-10-31T08:26:48;15.30;;;7.18;;
54947;SDS011;41113;41.882;12.530;2022-10-31T08:29:13;15.25;;;6.45;;
54947;SDS011;41113;41.882;12.530;2022-10-31T08:31:39;13.82;;;6.32;;
54947;SDS011;41113;41.882;12.530;2022-10-31T08:34:05;14.38;;;6.05;;
54947;SDS011;41113;41.882;12.530;2022-10-31T08:36:31;15.40;;;5.68;;
54947;SDS011;41113;41.882;12.530;2022-10-31T08:38:56;13.45;;;5.43;;
54947;SDS011;41113;41.882;12.530;2022-10-31T08:41:21;13.23;;;5.88;;
54947;SDS011;41113;41.882;12.530;2022-10-31T08:43:47;14.38;;;6.20;;
54947;SDS011;41113;41.882;12.530;2022-10-31T08:46:12;16.88;;;5.85;;
54947;SDS011;41113;41.882;12.530;2022-10-31T08:48:38;11.10;;;4.90;;
54947;SDS011;41113;41.882;12.530;2022-10-31T08:51:04;14.10;;;5.57;;
54947;SDS011;41113;41.882;12.530;2022-10-31T08:53:29;12.07;;;5.10;;
54947;SDS011;41113;41.882;12.530;2022-10-31T08:55:55;12.13;;;4.93;;
54947;SDS011;41113;41.882;12.530;2022-10-31T08:58:21;14.25;;;5.43;;
54947;SDS011;41113;41.882;12.530;2022-10-31T09:00:48;11.43;;;4.63;;
54947;SDS011;41113;41.882;12.530;2022-10-31T09:03:17;11.25;;;4.90;;
54947;SDS011;41113;41.882;12.530;2022-10-31T09:05:44;10.13;;;4.95;;
54947;SDS011;41113;41.882;12.530;2022-10-31T09:08:11;11.13;;;4.80;;
54947;SDS011;41113;41.882;12.530;2022-10-31T09:10:37;12.15;;;4.68;;
54947;SDS011;41113;41.882;12.530;2022-10-31T09:13:13;13.55;;;5.32;;
54947;SDS011;41113;41.882;12.530;2022-10-31T09:15:41;14.55;;;5.15;;
54947;SDS011;41113;41.882;12.530;2022-10-31T09:18:09;13.57;;;4.72;;
54947;SDS011;41113;41.882;12.530;2022-10-31T09:20:36;9.95;;;4.40;;
54947;SDS011;41113;41.882;12.530;2022-10-31T09:23:03;15.75;;;5.05;;
54947;SDS011;41113;41.882;12.530;2022-10-31T09:25:30;10.82;;;4.70;;
54947;SDS011;41113;41.882;12.530;2022-10-31T09:27:57;11.90;;;5.32;;
54947;SDS011;41113;41.882;12.530;2022-10-31T09:30:24;12.45;;;4.72;;
54947;SDS011;41113;41.882;12.530;2022-10-31T09:32:56;13.88;;;5.18;;
54947;SDS011;41113;41.882;12.530;2022-10-31T09:35:23;11.90;;;5.60;;
54947;SDS011;41113;41.882;12.530;2022-10-31T09:37:58;12.30;;;4.93;;
54947;SDS011;41113;41.882;12.530;2022-10-31T09:40:38;12.10;;;4.15;;
54947;SDS011;41113;41.882;12.530;2022-10-31T09:48:14;13.30;;;4.55;;
54947;SDS011;41113;41.882;12.530;2022-10-31T09:50:52;13.00;;;4.20;;
54947;SDS011;41113;41.882;12.530;2022-10-31T09:56:16;15.63;;;7.00;;
54947;SDS011;41113;41.882;12.530;2022-10-31T09:58:48;12.48;;;5.50;;
54947;SDS011;41113;41.882;12.530;2022-10-31T10:01:25;13.32;;;5.20;;
54947;SDS011;41113;41.882;12.530;2022-10-31T10:03:53;10.82;;;4.72;;
54947;SDS011;41113;41.882;12.530;2022-10-31T10:06:29;15.95;;;4.90;;
54947;SDS011;41113;41.882;12.530;2022-10-31T10:09:00;14.02;;;4.80;;
54947;SDS011;41113;41.882;12.530;2022-10-31T10:11:30;14.95;;;4.97;;
54947;SDS011;41113;41.882;12.530;2022-10-31T10:14:16;12.55;;;4.78;;
54947;SDS011;41113;41.882;12.530;2022-10-31T10:17:21;13.52;;;4.63;;
54947;SDS011;41113;41.882;12.530;2022-10-31T10:20:12;14.20;;;4.60;;
54947;SDS011;41113;41.882;12.530;2022-10-31T10:26:00;17.98;;;4.47;;
54947;SDS011;41113;41.882;12.530;2022-10-31T10:28:35;13.90;;;4.05;;
54947;SDS011;41113;41.882;12.530;2022-10-31T10:31:14;11.88;;;4.10;;
54947;SDS011;41113;41.882;12.530;2022-10-31T10:38:52;9.77;;;3.65;;
54947;SDS011;41113;41.882;12.530;2022-10-31T10:41:22;10.30;;;3.80;;
54947;SDS011;41113;41.882;12.530;2022-10-31T10:43:49;11.15;;;3.88;;
54947;SDS011;41113;41.882;12.530;2022-10-31T10:46:17;12.23;;;3.85;;
54947;SDS011;41113;41.882;12.530;2022-10-31T10:51:28;10.70;;;3.88;;
54947;SDS011;41113;41.882;12.530;2022-10-31T10:54:29;12.45;;;4.05;;
54947;SDS011;41113;41.882;12.530;2022-10-31T11:00:13;13.52;;;3.78;;
54947;SDS011;41113;41.882;12.530;2022-10-31T11:02:42;10.23;;;3.45;;
54947;SDS011;41113;41.882;12.530;2022-10-31T11:05:08;9.35;;;3.60;;
54947;SDS011;41113;41.882;12.530;2022-10-31T11:07:42;14.48;;;4.25;;
54947;SDS011;41113;41.882;12.530;2022-10-31T11:10:11;10.25;;;3.85;;
54947;SDS011;41113;41.882;12.530;2022-10-31T11:12:41;13.55;;;4.15;;
54947;SDS011;41113;41.882;12.530;2022-10-31T11:15:19;11.48;;;3.67;;
54947;SDS011;41113;41.882;12.530;2022-10-31T11:17:48;12.55;;;3.72;;
54947;SDS011;41113;41.882;12.530;2022-10-31T11:22:42;10.85;;;3.80;;
54947;SDS011;41113;41.882;12.530;2022-10-31T11:27:43;10.30;;;3.83;;
54947;SDS011;41113;41.882;12.530;2022-10-31T11:30:09;11.65;;;3.47;;
54947;SDS011;41113;41.882;12.530;2022-10-31T11:32:36;9.20;;;3.35;;
54947;SDS011;41113;41.882;12.530;2022-10-31T11:35:10;12.15;;;3.40;;
54947;SDS011;41113;41.882;12.530;2022-10-31T11:37:41;8.77;;;2.70;;
54947;SDS011;41113;41.882;12.530;2022-10-31T11:40:18;12.27;;;3.30;;
54947;SDS011;41113;41.882;12.530;2022-10-31T11:42:46;11.30;;;3.00;;
54947;SDS011;41113;41.882;12.530;2022-10-31T11:47:55;10.43;;;3.42;;
54947;SDS011;41113;41.882;12.530;2022-10-31T11:50:22;9.30;;;2.80;;
54947;SDS011;41113;41.882;12.530;2022-10-31T11:52:58;9.52;;;3.25;;
54947;SDS011;41113;41.882;12.530;2022-10-31T11:57:56;11.57;;;3.97;;
54947;SDS011;41113;41.882;12.530;2022-10-31T12:00:35;12.27;;;3.20;;
54947;SDS011;41113;41.882;12.530;2022-10-31T12:05:47;9.45;;;2.90;;
54947;SDS011;41113;41.882;12.530;2022-10-31T12:08:18;10.57;;;2.92;;
54947;SDS011;41113;41.882;12.530;2022-10-31T12:13:48;10.57;;;3.28;;
54947;SDS011;41113;41.882;12.530;2022-10-31T12:16:20;8.93;;;3.05;;
54947;SDS011;41113;41.882;12.530;2022-10-31T12:19:00;8.20;;;2.70;;
54947;SDS011;41113;41.882;12.530;2022-10-31T12:35:50;12.43;;;3.65;;
54947;SDS011;41113;41.882;12.530;2022-10-31T12:41:24;11.25;;;3.50;;
54947;SDS011;41113;41.882;12.530;2022-10-31T12:52:22;11.65;;;3.20;;
54947;SDS011;41113;41.882;12.530;2022-10-31T12:57:51;10.23;;;3.42;;
54947;SDS011;41113;41.882;12.530;2022-10-31T13:00:22;11.45;;;3.90;;
54947;SDS011;41113;41.882;12.530;2022-10-31T13:05:44;10.98;;;3.53;;
54947;SDS011;41113;41.882;12.530;2022-10-31T13:10:49;12.73;;;3.60;;
54947;SDS011;41113;41.882;12.530;2022-10-31T13:13:26;13.50;;;3.80;;
54947;SDS011;41113;41.882;12.530;2022-10-31T13:16:32;10.00;;;3.20;;
54947;SDS011;41113;41.882;12.530;2022-10-31T13:19:08;11.85;;;3.72;;
54947;SDS011;41113;41.882;12.530;2022-10-31T13:24:23;10.95;;;3.80;;
54947;SDS011;41113;41.882;12.530;2022-10-31T13:26:57;11.82;;;3.70;;
54947;SDS011;41113;41.882;12.530;2022-10-31T13:29:30;10.68;;;3.65;;
54947;SDS011;41113;41.882;12.530;2022-10-31T13:32:04;12.85;;;4.10;;
54947;SDS011;41113;41.882;12.530;2022-10-31T13:40:17;12.05;;;3.97;;
54947;SDS011;41113;41.882;12.530;2022-10-31T13:42:57;10.43;;;3.95;;
54947;SDS011;41113;41.882;12.530;2022-10-31T13:45:31;11.23;;;4.10;;
54947;SDS011;41113;41.882;12.530;2022-10-31T13:50:40;11.75;;;3.60;;
54947;SDS011;41113;41.882;12.530;2022-10-31T13:53:12;11.75;;;3.65;;
54947;SDS011;41113;41.882;12.530;2022-10-31T13:55:43;10.95;;;3.75;;
54947;SDS011;41113;41.882;12.530;2022-10-31T13:58:52;12.48;;;3.80;;
54947;SDS011;41113;41.882;12.530;2022-10-31T14:01:11;11.50;;;4.05;;
54947;SDS011;41113;41.882;12.530;2022-10-31T14:03:42;10.77;;;3.88;;
54947;SDS011;41113;41.882;12.530;2022-10-31T14:06:10;12.85;;;3.88;;
54947;SDS011;41113;41.882;12.530;2022-10-31T14:08:37;10.10;;;3.88;;
54947;SDS011;41113;41.882;12.530;2022-10-31T14:11:07;13.73;;;4.07;;
54947;SDS011;41113;41.882;12.530;2022-10-31T14:13:42;13.88;;;4.18;;
54947;SDS011;41113;41.882;12.530;2022-10-31T14:16:23;14.02;;;4.72;;
54947;SDS011;41113;41.882;12.530;2022-10-31T14:18:59;11.27;;;4.20;;
54947;SDS011;41113;41.882;12.530;2022-10-31T14:21:39;15.00;;;5.68;;
54947;SDS011;41113;41.882;12.530;2022-10-31T14:24:15;15.20;;;5.82;;
54947;SDS011;41113;41.882;12.530;2022-10-31T14:27:02;17.67;;;8.25;;
54947;SDS011;41113;41.882;12.530;2022-10-31T14:29:48;20.33;;;6.45;;
54947;SDS011;41113;41.882;12.530;2022-10-31T14:32:18;19.33;;;5.65;;
54947;SDS011;41113;41.882;12.530;2022-10-31T14:42:52;14.02;;;5.22;;
54947;SDS011;41113;41.882;12.530;2022-10-31T14:50:50;14.30;;;5.63;;
54947;SDS011;41113;41.882;12.530;2022-10-31T14:53:20;13.85;;;5.47;;
54947;SDS011;41113;41.882;12.530;2022-10-31T14:55:52;37.45;;;16.20;;
54947;SDS011;41113;41.882;12.530;2022-10-31T14:58:21;23.90;;;10.17;;
54947;SDS011;41113;41.882;12.530;2022-10-31T15:00:52;22.85;;;9.00;;
54947;SDS011;41113;41.882;12.530;2022-10-31T15:03:23;18.48;;;6.15;;
54947;SDS011;41113;41.882;12.530;2022-10-31T15:05:54;12.43;;;5.38;;
54947;SDS011;41113;41.882;12.530;2022-10-31T15:08:44;14.23;;;5.32;;
54947;SDS011;41113;41.882;12.530;2022-10-31T15:11:15;10.65;;;4.75;;
54947;SDS011;41113;41.882;12.530;2022-10-31T15:13:45;12.85;;;4.70;;
54947;SDS011;41113;41.882;12.530;2022-10-31T15:16:20;13.05;;;4.20;;
54947;SDS011;41113;41.882;12.530;2022-10-31T15:21:26;14.35;;;4.43;;
54947;SDS011;41113;41.882;12.530;2022-10-31T15:23:56;11.55;;;4.07;;
54947;SDS011;41113;41.882;12.530;2022-10-31T15:26:26;10.63;;;4.25;;
54947;SDS011;41113;41.882;12.530;2022-10-31T15:29:05;13.23;;;3.95;;
54947;SDS011;41113;41.882;12.530;2022-10-31T15:31:36;11.95;;;3.95;;
54947;SDS011;41113;41.882;12.530;2022-10-31T15:34:03;14.52;;;4.47;;
54947;SDS011;41113;41.882;12.530;2022-10-31T15:36:32;10.23;;;4.07;;
54947;SDS011;41113;41.882;12.530;2022-10-31T15:38:58;13.60;;;4.22;;
54947;SDS011;41113;41.882;12.530;2022-10-31T15:41:47;12.60;;;4.13;;
54947;SDS011;41113;41.882;12.530;2022-10-31T15:44:15;10.18;;;4.22;;
54947;SDS011;41113;41.882;12.530;2022-10-31T15:47:00;11.43;;;4.05;;
54947;SDS011;41113;41.882;12.530;2022-10-31T15:52:16;8.93;;;3.42;;
54947;SDS011;41113;41.882;12.530;2022-10-31T15:55:02;11.02;;;4.10;;
54947;SDS011;41113;41.882;12.530;2022-10-31T15:57:30;11.07;;;4.10;;
54947;SDS011;41113;41.882;12.530;2022-10-31T15:59:56;14.95;;;4.70;;
54947;SDS011;41113;41.882;12.530;2022-10-31T16:02:26;9.55;;;3.47;;
54947;SDS011;41113;41.882;12.530;2022-10-31T16:04:59;12.77;;;4.18;;
54947;SDS011;41113;41.882;12.530;2022-10-31T16:07:26;12.02;;;4.30;;
54947;SDS011;41113;41.882;12.530;2022-10-31T16:09:54;10.65;;;3.83;;
54947;SDS011;41113;41.882;12.530;2022-10-31T16:12:36;11.38;;;4.32;;
54947;SDS011;41113;41.882;12.530;2022-10-31T16:15:13;16.48;;;4.55;;
54947;SDS011;41113;41.882;12.530;2022-10-31T16:17:40;11.68;;;3.78;;
54947;SDS011;41113;41.882;12.530;2022-10-31T16:20:16;12.18;;;4.35;;
54947;SDS011;41113;41.882;12.530;2022-10-31T16:22:47;12.13;;;4.82;;
54947;SDS011;41113;41.882;12.530;2022-10-31T16:27:49;12.50;;;4.07;;
54947;SDS011;41113;41.882;12.530;2022-10-31T16:30:50;12.45;;;4.60;;
54947;SDS011;41113;41.882;12.530;2022-10-31T16:33:26;9.98;;;3.47;;
54947;SDS011;41113;41.882;12.530;2022-10-31T16:35:54;14.07;;;4.65;;
54947;SDS011;41113;41.882;12.530;2022-10-31T16:38:21;12.98;;;4.88;;
54947;SDS011;41113;41.882;12.530;2022-10-31T16:40:46;12.27;;;4.78;;
54947;SDS011;41113;41.882;12.530;2022-10-31T16:43:13;14.27;;;4.72;;
54947;SDS011;41113;41.882;12.530;2022-10-31T16:45:51;13.07;;;5.28;;
54947;SDS011;41113;41.882;12.530;2022-10-31T16:48:18;15.25;;;5.10;;
54947;SDS011;41113;41.882;12.530;2022-10-31T16:50:46;13.18;;;4.97;;
54947;SDS011;41113;41.882;12.530;2022-10-31T16:53:13;10.90;;;4.55;;
54947;SDS011;41113;41.882;12.530;2022-10-31T16:55:49;14.43;;;5.13;;